sensor_id;sensor_type;location;lat;lon;timestamp;temperature;humidity
30037;DHT22;36325;51.512;-0.382;2023-08-20T00:00:26;16.60;99.90
30037;DHT22;36325;51.512;-0.382;2023-08-20T00:02:59;16.60;99.90
30037;DHT22;36325;51.512;-0.382;2023-08-20T00:05:31;16.60;99.90
30037;DHT22;36325;51.512;-0.382;2023-08-20T00:07:58;16.50;99.90
30037;DHT22;36325;51.512;-0.382;2023-08-20T00:10:26;16.50;99.90
30037;DHT22;36325;51.512;-0.382;2023-08-20T00:12:53;16.50;99.90
30037;DHT22;36325;51.512;-0.382;2023-08-20T00:15:21;16.50;99.90
30037;DHT22;36325;51.512;-0.382;2023-08-20T00:17:54;16.50;99.90
30037;DHT22;36325;51.512;-0.382;2023-08-20T00:20:24;16.40;99.90
30037;DHT22;36325;51.512;-0.382;2023-08-20T00:22:51;16.50;99.90
30037;DHT22;36325;51.512;-0.382;2023-08-20T00:25:19;16.40;99.90
30037;DHT22;36325;51.512;-0.382;2023-08-20T00:27:47;16.40;99.90
30037;DHT22;36325;51.512;-0.382;2023-08-20T00:30:14;16.40;99.90
30037;DHT22;36325;51.512;-0.382;2023-08-20T00:32:43;16.30;99.90
30037;DHT22;36325;51.512;-0.382;2023-08-20T00:35:10;16.30;99.90
30037;DHT22;36325;51.512;-0.382;2023-08-20T00:37:37;16.30;99.90
30037;DHT22;36325;51.512;-0.382;2023-08-20T00:40:06;16.30;99.90
30037;DHT22;36325;51.512;-0.382;2023-08-20T00:45:02;16.30;99.90
30037;DHT22;36325;51.512;-0.382;2023-08-20T00:47:34;16.30;99.90
30037;DHT22;36325;51.512;-0.382;2023-08-20T00:52:35;16.30;99.90
30037;DHT22;36325;51.512;-0.382;2023-08-20T00:55:10;16.30;99.90
30037;DHT22;36325;51.512;-0.382;2023-08-20T00:57:39;16.30;99.90
30037;DHT22;36325;51.512;-0.382;2023-08-20T01:00:08;16.30;99.90
30037;DHT22;36325;51.512;-0.382;2023-08-20T01:02:38;16.40;99.90
30037;DHT22;36325;51.512;-0.382;2023-08-20T01:05:09;16.40;99.90
30037;DHT22;36325;51.512;-0.382;2023-08-20T01:07:54;16.30;99.90
30037;DHT22;36325;51.512;-0.382;2023-08-20T01:10:38;16.40;99.90
30037;DHT22;36325;51.512;-0.382;2023-08-20T01:13:09;16.40;99.90
30037;DHT22;36325;51.512;-0.382;2023-08-20T01:15:37;16.50;99.90
30037;DHT22;36325;51.512;-0.382;2023-08-20T01:20:39;16.50;99.90
30037;DHT22;36325;51.512;-0.382;2023-08-20T01:23:36;16.50;99.90
30037;DHT22;36325;51.512;-0.382;2023-08-20T01:29:04;16.50;99.90
30037;DHT22;36325;51.512;-0.382;2023-08-20T01:31:32;16.40;99.90
30037;DHT22;36325;51.512;-0.382;2023-08-20T01:34:01;16.40;99.90
30037;DHT22;36325;51.512;-0.382;2023-08-20T01:38:57;16.40;99.90
30037;DHT22;36325;51.512;-0.382;2023-08-20T01:41:27;16.30;99.90
30037;DHT22;36325;51.512;-0.382;2023-08-20T01:44:02;16.30;99.90
30037;DHT22;36325;51.512;-0.382;2023-08-20T01:46:32;16.30;99.90
30037;DHT22;36325;51.512;-0.382;2023-08-20T01:48:59;16.20;99.90
30037;DHT22;36325;51.512;-0.382;2023-08-20T01:51:28;16.20;99.90
30037;DHT22;36325;51.512;-0.382;2023-08-20T01:53:55;16.20;99.90
30037;DHT22;36325;51.512;-0.382;2023-08-20T01:58:52;16.10;99.90
30037;DHT22;36325;51.512;-0.382;2023-08-20T02:01:19;15.40;99.90
30037;DHT22;36325;51.512;-0.382;2023-08-20T02:03:47;16.10;99.90
30037;DHT22;36325;51.512;-0.382;2023-08-20T02:08:45;16.00;99.90
30037;DHT22;36325;51.512;-0.382;2023-08-20T02:11:13;16.00;99.90
30037;DHT22;36325;51.512;-0.382;2023-08-20T02:13:40;16.00;99.90
30037;DHT22;36325;51.512;-0.382;2023-08-20T02:16:08;16.00;99.90
30037;DHT22;36325;51.512;-0.382;2023-08-20T02:18:36;16.00;99.90
30037;DHT22;36325;51.512;-0.382;2023-08-20T02:21:04;16.00;99.90
30037;DHT22;36325;51.512;-0.382;2023-08-20T02:23:31;16.10;99.90
30037;DHT22;36325;51.512;-0.382;2023-08-20T02:25:59;16.20;99.90
30037;DHT22;36325;51.512;-0.382;2023-08-20T02:28:29;16.20;99.90
30037;DHT22;36325;51.512;-0.382;2023-08-20T02:30:56;16.40;99.90
30037;DHT22;36325;51.512;-0.382;2023-08-20T02:33:25;16.40;99.90
30037;DHT22;36325;51.512;-0.382;2023-08-20T02:35:52;16.50;99.90
30037;DHT22;36325;51.512;-0.382;2023-08-20T02:38:21;16.50;99.90
30037;DHT22;36325;51.512;-0.382;2023-08-20T02:40:49;16.60;99.90
30037;DHT22;36325;51.512;-0.382;2023-08-20T02:43:17;16.60;99.90
30037;DHT22;36325;51.512;-0.382;2023-08-20T02:45:45;16.60;99.90
30037;DHT22;36325;51.512;-0.382;2023-08-20T02:48:14;16.60;99.90
30037;DHT22;36325;51.512;-0.382;2023-08-20T02:50:41;16.70;99.90
30037;DHT22;36325;51.512;-0.382;2023-08-20T02:53:09;16.70;99.90
30037;DHT22;36325;51.512;-0.382;2023-08-20T02:58:04;16.70;99.90
30037;DHT22;36325;51.512;-0.382;2023-08-20T03:00:35;16.70;99.90
30037;DHT22;36325;51.512;-0.382;2023-08-20T03:03:04;16.60;99.90
30037;DHT22;36325;51.512;-0.382;2023-08-20T03:05:34;16.60;99.90
30037;DHT22;36325;51.512;-0.382;2023-08-20T03:08:02;16.50;99.90
30037;DHT22;36325;51.512;-0.382;2023-08-20T03:10:31;16.50;99.90
30037;DHT22;36325;51.512;-0.382;2023-08-20T03:13:03;16.50;99.90
30037;DHT22;36325;51.512;-0.382;2023-08-20T03:15:33;16.40;99.90
30037;DHT22;36325;51.512;-0.382;2023-08-20T03:20:29;16.30;99.90
30037;DHT22;36325;51.512;-0.382;2023-08-20T03:22:58;16.30;99.90
30037;DHT22;36325;51.512;-0.382;2023-08-20T03:25:25;16.20;99.90
30037;DHT22;36325;51.512;-0.382;2023-08-20T03:27:53;16.20;99.90
30037;DHT22;36325;51.512;-0.382;2023-08-20T03:30:21;16.10;99.90
30037;DHT22;36325;51.512;-0.382;2023-08-20T03:32:48;16.10;99.90
30037;DHT22;36325;51.512;-0.382;2023-08-20T03:35:16;16.10;99.90
30037;DHT22;36325;51.512;-0.382;2023-08-20T03:37:43;16.00;99.90
30037;DHT22;36325;51.512;-0.382;2023-08-20T03:40:11;16.00;99.90
30037;DHT22;36325;51.512;-0.382;2023-08-20T03:42:39;15.90;99.90
30037;DHT22;36325;51.512;-0.382;2023-08-20T03:45:06;15.90;99.90
30037;DHT22;36325;51.512;-0.382;2023-08-20T03:47:34;15.90;99.90
30037;DHT22;36325;51.512;-0.382;2023-08-20T03:50:05;15.80;99.90
30037;DHT22;36325;51.512;-0.382;2023-08-20T03:52:32;15.80;99.90
30037;DHT22;36325;51.512;-0.382;2023-08-20T03:55:00;15.70;99.90
30037;DHT22;36325;51.512;-0.382;2023-08-20T03:57:27;15.80;99.90
30037;DHT22;36325;51.512;-0.382;2023-08-20T03:59:54;15.70;99.90
30037;DHT22;36325;51.512;-0.382;2023-08-20T04:02:22;15.70;99.90
30037;DHT22;36325;51.512;-0.382;2023-08-20T04:04:50;15.70;99.90
30037;DHT22;36325;51.512;-0.382;2023-08-20T04:09:45;15.60;99.90
30037;DHT22;36325;51.512;-0.382;2023-08-20T04:12:13;15.60;99.90
30037;DHT22;36325;51.512;-0.382;2023-08-20T04:14:40;15.60;99.90
30037;DHT22;36325;51.512;-0.382;2023-08-20T04:19:36;15.60;99.90
30037;DHT22;36325;51.512;-0.382;2023-08-20T04:22:03;15.60;99.90
30037;DHT22;36325;51.512;-0.382;2023-08-20T04:24:31;15.60;99.90
30037;DHT22;36325;51.512;-0.382;2023-08-20T04:26:59;15.60;99.90
30037;DHT22;36325;51.512;-0.382;2023-08-20T04:29:28;15.60;99.90
30037;DHT22;36325;51.512;-0.382;2023-08-20T04:31:55;15.60;99.90
30037;DHT22;36325;51.512;-0.382;2023-08-20T04:34:23;14.40;99.90
30037;DHT22;36325;51.512;-0.382;2023-08-20T04:36:52;15.50;99.90
30037;DHT22;36325;51.512;-0.382;2023-08-20T04:39:20;15.50;99.90
30037;DHT22;36325;51.512;-0.382;2023-08-20T04:41:51;15.50;99.90
30037;DHT22;36325;51.512;-0.382;2023-08-20T04:44:21;15.50;99.90
30037;DHT22;36325;51.512;-0.382;2023-08-20T04:46:49;15.50;99.90
30037;DHT22;36325;51.512;-0.382;2023-08-20T04:49:17;15.50;99.90
30037;DHT22;36325;51.512;-0.382;2023-08-20T04:51:45;17.20;99.90
30037;DHT22;36325;51.512;-0.382;2023-08-20T04:54:14;15.60;99.90
30037;DHT22;36325;51.512;-0.382;2023-08-20T04:56:42;15.70;99.90
30037;DHT22;36325;51.512;-0.382;2023-08-20T04:59:10;15.70;99.90
30037;DHT22;36325;51.512;-0.382;2023-08-20T05:01:59;15.80;99.90
30037;DHT22;36325;51.512;-0.382;2023-08-20T05:04:38;15.90;99.90
30037;DHT22;36325;51.512;-0.382;2023-08-20T05:07:10;16.00;99.90
30037;DHT22;36325;51.512;-0.382;2023-08-20T05:09:38;16.00;99.90
30037;DHT22;36325;51.512;-0.382;2023-08-20T05:12:07;16.00;99.90
30037;DHT22;36325;51.512;-0.382;2023-08-20T05:14:35;16.10;99.90
30037;DHT22;36325;51.512;-0.382;2023-08-20T05:17:02;16.10;99.90
30037;DHT22;36325;51.512;-0.382;2023-08-20T05:19:29;16.20;99.90
30037;DHT22;36325;51.512;-0.382;2023-08-20T05:21:57;16.20;99.90
30037;DHT22;36325;51.512;-0.382;2023-08-20T05:24:31;16.30;99.90
30037;DHT22;36325;51.512;-0.382;2023-08-20T05:27:29;16.30;99.90
30037;DHT22;36325;51.512;-0.382;2023-08-20T05:29:58;16.30;99.90
30037;DHT22;36325;51.512;-0.382;2023-08-20T05:32:25;16.30;99.90
30037;DHT22;36325;51.512;-0.382;2023-08-20T05:34:53;16.30;99.90
30037;DHT22;36325;51.512;-0.382;2023-08-20T05:37:21;16.40;99.90
30037;DHT22;36325;51.512;-0.382;2023-08-20T05:39:48;16.40;99.90
30037;DHT22;36325;51.512;-0.382;2023-08-20T05:42:16;16.40;99.90
30037;DHT22;36325;51.512;-0.382;2023-08-20T05:44:50;16.50;99.90
30037;DHT22;36325;51.512;-0.382;2023-08-20T05:47:22;16.50;99.90
30037;DHT22;36325;51.512;-0.382;2023-08-20T05:49:50;16.50;99.90
30037;DHT22;36325;51.512;-0.382;2023-08-20T05:52:18;16.60;99.90
30037;DHT22;36325;51.512;-0.382;2023-08-20T05:54:46;16.60;99.90
30037;DHT22;36325;51.512;-0.382;2023-08-20T05:57:14;16.60;99.90
30037;DHT22;36325;51.512;-0.382;2023-08-20T05:59:43;16.50;99.90
30037;DHT22;36325;51.512;-0.382;2023-08-20T06:02:15;16.50;99.90
30037;DHT22;36325;51.512;-0.382;2023-08-20T06:04:44;16.50;99.90
30037;DHT22;36325;51.512;-0.382;2023-08-20T06:07:11;16.60;99.90
30037;DHT22;36325;51.512;-0.382;2023-08-20T06:09:39;16.70;99.90
30037;DHT22;36325;51.512;-0.382;2023-08-20T06:12:06;16.70;99.90
30037;DHT22;36325;51.512;-0.382;2023-08-20T06:14:36;16.70;99.90
30037;DHT22;36325;51.512;-0.382;2023-08-20T06:17:03;16.70;99.90
30037;DHT22;36325;51.512;-0.382;2023-08-20T06:19:31;16.80;99.90
30037;DHT22;36325;51.512;-0.382;2023-08-20T06:24:26;16.90;99.90
30037;DHT22;36325;51.512;-0.382;2023-08-20T06:29:22;17.10;99.90
30037;DHT22;36325;51.512;-0.382;2023-08-20T06:31:49;17.10;99.90
30037;DHT22;36325;51.512;-0.382;2023-08-20T06:34:23;17.20;99.90
30037;DHT22;36325;51.512;-0.382;2023-08-20T06:36:50;17.20;99.90
30037;DHT22;36325;51.512;-0.382;2023-08-20T06:39:18;17.20;99.90
30037;DHT22;36325;51.512;-0.382;2023-08-20T06:41:47;17.20;99.90
30037;DHT22;36325;51.512;-0.382;2023-08-20T06:44:19;17.30;99.90
30037;DHT22;36325;51.512;-0.382;2023-08-20T06:46:47;17.30;99.90
30037;DHT22;36325;51.512;-0.382;2023-08-20T06:49:14;17.40;99.90
30037;DHT22;36325;51.512;-0.382;2023-08-20T06:51:49;17.40;99.90
30037;DHT22;36325;51.512;-0.382;2023-08-20T06:56:44;17.60;99.90
30037;DHT22;36325;51.512;-0.382;2023-08-20T06:59:13;17.70;99.90
30037;DHT22;36325;51.512;-0.382;2023-08-20T07:01:41;17.90;99.90
30037;DHT22;36325;51.512;-0.382;2023-08-20T07:04:08;18.00;99.90
30037;DHT22;36325;51.512;-0.382;2023-08-20T07:06:39;18.20;99.90
30037;DHT22;36325;51.512;-0.382;2023-08-20T07:09:06;18.30;99.90
30037;DHT22;36325;51.512;-0.382;2023-08-20T07:11:34;18.50;99.90
30037;DHT22;36325;51.512;-0.382;2023-08-20T07:14:01;18.50;99.90
30037;DHT22;36325;51.512;-0.382;2023-08-20T07:16:29;18.50;99.90
30037;DHT22;36325;51.512;-0.382;2023-08-20T07:18:56;18.60;99.90
30037;DHT22;36325;51.512;-0.382;2023-08-20T07:21:24;18.60;99.90
30037;DHT22;36325;51.512;-0.382;2023-08-20T07:23:51;18.70;99.90
30037;DHT22;36325;51.512;-0.382;2023-08-20T07:26:19;18.80;99.90
30037;DHT22;36325;51.512;-0.382;2023-08-20T07:28:47;18.90;99.90
30037;DHT22;36325;51.512;-0.382;2023-08-20T07:33:53;19.10;99.90
30037;DHT22;36325;51.512;-0.382;2023-08-20T07:36:24;19.30;99.90
30037;DHT22;36325;51.512;-0.382;2023-08-20T07:38:55;19.60;99.90
30037;DHT22;36325;51.512;-0.382;2023-08-20T07:41:23;19.80;99.90
30037;DHT22;36325;51.512;-0.382;2023-08-20T07:43:51;19.70;99.90
30037;DHT22;36325;51.512;-0.382;2023-08-20T07:46:20;20.00;99.90
30037;DHT22;36325;51.512;-0.382;2023-08-20T07:48:48;20.00;99.90
30037;DHT22;36325;51.512;-0.382;2023-08-20T07:51:15;20.00;99.90
30037;DHT22;36325;51.512;-0.382;2023-08-20T07:53:42;20.00;99.90
30037;DHT22;36325;51.512;-0.382;2023-08-20T07:56:09;20.00;99.90
30037;DHT22;36325;51.512;-0.382;2023-08-20T07:58:38;20.10;99.90
30037;DHT22;36325;51.512;-0.382;2023-08-20T08:01:08;20.10;99.90
30037;DHT22;36325;51.512;-0.382;2023-08-20T08:03:40;20.20;99.90
30037;DHT22;36325;51.512;-0.382;2023-08-20T08:06:07;20.30;99.90
30037;DHT22;36325;51.512;-0.382;2023-08-20T08:08:35;20.30;99.90
30037;DHT22;36325;51.512;-0.382;2023-08-20T08:11:02;20.60;99.90
30037;DHT22;36325;51.512;-0.382;2023-08-20T08:13:30;20.60;99.90
30037;DHT22;36325;51.512;-0.382;2023-08-20T08:15:58;20.70;99.90
30037;DHT22;36325;51.512;-0.382;2023-08-20T08:18:26;20.90;99.90
30037;DHT22;36325;51.512;-0.382;2023-08-20T08:20:53;21.30;99.90
30037;DHT22;36325;51.512;-0.382;2023-08-20T08:23:22;21.40;99.90
30037;DHT22;36325;51.512;-0.382;2023-08-20T08:26:04;21.70;99.90
30037;DHT22;36325;51.512;-0.382;2023-08-20T08:28:32;23.20;99.90
30037;DHT22;36325;51.512;-0.382;2023-08-20T08:30:59;22.00;99.90
30037;DHT22;36325;51.512;-0.382;2023-08-20T08:33:27;22.10;99.90
30037;DHT22;36325;51.512;-0.382;2023-08-20T08:35:55;20.20;99.90
30037;DHT22;36325;51.512;-0.382;2023-08-20T08:38:23;22.50;99.90
30037;DHT22;36325;51.512;-0.382;2023-08-20T08:40:55;22.70;99.90
30037;DHT22;36325;51.512;-0.382;2023-08-20T08:43:23;23.10;99.90
30037;DHT22;36325;51.512;-0.382;2023-08-20T08:45:55;23.60;99.90
30037;DHT22;36325;51.512;-0.382;2023-08-20T08:48:25;23.50;99.90
30037;DHT22;36325;51.512;-0.382;2023-08-20T08:50:53;23.90;99.90
30037;DHT22;36325;51.512;-0.382;2023-08-20T08:53:21;24.10;99.90
30037;DHT22;36325;51.512;-0.382;2023-08-20T08:55:49;23.90;99.90
30037;DHT22;36325;51.512;-0.382;2023-08-20T08:58:17;23.90;99.90
30037;DHT22;36325;51.512;-0.382;2023-08-20T09:00:44;23.30;99.90
30037;DHT22;36325;51.512;-0.382;2023-08-20T09:03:13;23.20;99.90
30037;DHT22;36325;51.512;-0.382;2023-08-20T09:05:46;23.30;99.90
30037;DHT22;36325;51.512;-0.382;2023-08-20T09:08:22;23.00;99.90
30037;DHT22;36325;51.512;-0.382;2023-08-20T09:10:51;22.20;99.90
30037;DHT22;36325;51.512;-0.382;2023-08-20T09:13:24;22.10;99.90
30037;DHT22;36325;51.512;-0.382;2023-08-20T09:15:52;22.10;99.90
30037;DHT22;36325;51.512;-0.382;2023-08-20T09:18:20;21.80;99.90
30037;DHT22;36325;51.512;-0.382;2023-08-20T09:20:48;22.10;99.90
30037;DHT22;36325;51.512;-0.382;2023-08-20T09:25:47;23.00;99.90
30037;DHT22;36325;51.512;-0.382;2023-08-20T09:28:17;23.60;99.90
30037;DHT22;36325;51.512;-0.382;2023-08-20T09:30:59;24.00;99.90
30037;DHT22;36325;51.512;-0.382;2023-08-20T09:33:30;24.30;99.90
30037;DHT22;36325;51.512;-0.382;2023-08-20T09:35:58;24.40;99.90
30037;DHT22;36325;51.512;-0.382;2023-08-20T09:38:25;24.70;99.90
30037;DHT22;36325;51.512;-0.382;2023-08-20T09:40:54;24.60;99.90
30037;DHT22;36325;51.512;-0.382;2023-08-20T09:43:25;24.10;99.90
30037;DHT22;36325;51.512;-0.382;2023-08-20T09:46:01;24.10;99.90
30037;DHT22;36325;51.512;-0.382;2023-08-20T09:48:34;24.50;99.90
30037;DHT22;36325;51.512;-0.382;2023-08-20T09:51:08;24.70;99.90
30037;DHT22;36325;51.512;-0.382;2023-08-20T09:54:03;24.70;99.90
30037;DHT22;36325;51.512;-0.382;2023-08-20T09:56:30;25.30;99.90
30037;DHT22;36325;51.512;-0.382;2023-08-20T09:59:00;25.70;99.90
30037;DHT22;36325;51.512;-0.382;2023-08-20T10:01:29;25.70;99.90
30037;DHT22;36325;51.512;-0.382;2023-08-20T10:03:57;25.70;99.90
30037;DHT22;36325;51.512;-0.382;2023-08-20T10:06:26;25.70;99.90
30037;DHT22;36325;51.512;-0.382;2023-08-20T10:08:54;25.40;99.90
30037;DHT22;36325;51.512;-0.382;2023-08-20T10:11:24;25.10;99.90
30037;DHT22;36325;51.512;-0.382;2023-08-20T10:13:51;25.20;99.90
30037;DHT22;36325;51.512;-0.382;2023-08-20T10:16:20;24.70;99.90
30037;DHT22;36325;51.512;-0.382;2023-08-20T10:18:49;24.70;99.90
30037;DHT22;36325;51.512;-0.382;2023-08-20T10:21:17;24.90;99.90
30037;DHT22;36325;51.512;-0.382;2023-08-20T10:23:48;25.30;99.90
30037;DHT22;36325;51.512;-0.382;2023-08-20T10:26:20;25.70;99.90
30037;DHT22;36325;51.512;-0.382;2023-08-20T10:28:49;25.80;99.90
30037;DHT22;36325;51.512;-0.382;2023-08-20T10:31:17;26.30;99.90
30037;DHT22;36325;51.512;-0.382;2023-08-20T10:36:19;26.50;99.90
30037;DHT22;36325;51.512;-0.382;2023-08-20T10:38:54;25.80;99.90
30037;DHT22;36325;51.512;-0.382;2023-08-20T10:41:28;25.20;99.90
30037;DHT22;36325;51.512;-0.382;2023-08-20T10:44:00;24.80;99.90
30037;DHT22;36325;51.512;-0.382;2023-08-20T10:46:28;24.50;99.90
30037;DHT22;36325;51.512;-0.382;2023-08-20T10:49:03;24.30;99.90
30037;DHT22;36325;51.512;-0.382;2023-08-20T10:51:33;24.40;99.90
30037;DHT22;36325;51.512;-0.382;2023-08-20T10:54:08;24.30;99.90
30037;DHT22;36325;51.512;-0.382;2023-08-20T10:56:45;25.10;99.90
30037;DHT22;36325;51.512;-0.382;2023-08-20T11:01:52;25.80;99.90
30037;DHT22;36325;51.512;-0.382;2023-08-20T11:04:21;25.70;99.90
30037;DHT22;36325;51.512;-0.382;2023-08-20T11:06:58;25.30;99.90
30037;DHT22;36325;51.512;-0.382;2023-08-20T11:09:29;26.20;99.90
30037;DHT22;36325;51.512;-0.382;2023-08-20T11:11:57;26.40;99.90
30037;DHT22;36325;51.512;-0.382;2023-08-20T11:14:26;27.90;99.90
30037;DHT22;36325;51.512;-0.382;2023-08-20T11:16:54;27.90;99.90
30037;DHT22;36325;51.512;-0.382;2023-08-20T11:19:23;28.50;99.90
30037;DHT22;36325;51.512;-0.382;2023-08-20T11:21:54;29.20;99.90
30037;DHT22;36325;51.512;-0.382;2023-08-20T11:24:22;29.50;99.90
30037;DHT22;36325;51.512;-0.382;2023-08-20T11:26:49;29.90;99.90
30037;DHT22;36325;51.512;-0.382;2023-08-20T11:29:18;29.70;99.90
30037;DHT22;36325;51.512;-0.382;2023-08-20T11:31:49;30.30;99.90
30037;DHT22;36325;51.512;-0.382;2023-08-20T11:34:18;30.30;99.90
30037;DHT22;36325;51.512;-0.382;2023-08-20T11:36:46;30.50;99.90
30037;DHT22;36325;51.512;-0.382;2023-08-20T11:39:14;30.40;99.90
30037;DHT22;36325;51.512;-0.382;2023-08-20T11:41:55;29.70;99.90
30037;DHT22;36325;51.512;-0.382;2023-08-20T11:44:25;30.20;99.90
30037;DHT22;36325;51.512;-0.382;2023-08-20T11:46:56;31.10;99.90
30037;DHT22;36325;51.512;-0.382;2023-08-20T11:49:28;30.80;99.90
30037;DHT22;36325;51.512;-0.382;2023-08-20T11:52:00;31.20;99.90
30037;DHT22;36325;51.512;-0.382;2023-08-20T11:54:32;31.70;99.90
30037;DHT22;36325;51.512;-0.382;2023-08-20T11:57:04;32.10;99.90
30037;DHT22;36325;51.512;-0.382;2023-08-20T11:59:36;32.50;99.90
30037;DHT22;36325;51.512;-0.382;2023-08-20T12:02:05;32.50;99.90
30037;DHT22;36325;51.512;-0.382;2023-08-20T12:07:03;30.20;99.90
30037;DHT22;36325;51.512;-0.382;2023-08-20T12:09:32;29.90;99.90
30037;DHT22;36325;51.512;-0.382;2023-08-20T12:12:04;30.40;99.90
30037;DHT22;36325;51.512;-0.382;2023-08-20T12:14:37;30.20;99.90
30037;DHT22;36325;51.512;-0.382;2023-08-20T12:17:04;31.40;99.90
30037;DHT22;36325;51.512;-0.382;2023-08-20T12:19:32;32.10;99.90
30037;DHT22;36325;51.512;-0.382;2023-08-20T12:22:02;32.10;99.90
30037;DHT22;36325;51.512;-0.382;2023-08-20T12:24:29;32.60;99.90
30037;DHT22;36325;51.512;-0.382;2023-08-20T12:26:57;33.00;99.90
30037;DHT22;36325;51.512;-0.382;2023-08-20T12:29:25;33.40;99.90
30037;DHT22;36325;51.512;-0.382;2023-08-20T12:31:52;34.00;99.90
30037;DHT22;36325;51.512;-0.382;2023-08-20T12:34:20;34.70;99.90
30037;DHT22;36325;51.512;-0.382;2023-08-20T12:36:52;35.40;99.90
30037;DHT22;36325;51.512;-0.382;2023-08-20T12:39:21;35.80;99.90
30037;DHT22;36325;51.512;-0.382;2023-08-20T12:41:49;36.20;99.90
30037;DHT22;36325;51.512;-0.382;2023-08-20T12:44:16;36.20;99.90
30037;DHT22;36325;51.512;-0.382;2023-08-20T12:46:44;36.20;99.90
30037;DHT22;36325;51.512;-0.382;2023-08-20T12:49:11;35.10;99.90
30037;DHT22;36325;51.512;-0.382;2023-08-20T12:51:41;33.70;99.90
30037;DHT22;36325;51.512;-0.382;2023-08-20T12:54:09;33.40;99.90
30037;DHT22;36325;51.512;-0.382;2023-08-20T12:56:37;32.90;99.90
30037;DHT22;36325;51.512;-0.382;2023-08-20T12:59:07;34.30;99.90
30037;DHT22;36325;51.512;-0.382;2023-08-20T13:01:34;34.30;99.90
30037;DHT22;36325;51.512;-0.382;2023-08-20T13:04:04;33.80;99.90
30037;DHT22;36325;51.512;-0.382;2023-08-20T13:06:32;33.40;99.90
30037;DHT22;36325;51.512;-0.382;2023-08-20T13:09:02;33.70;99.90
30037;DHT22;36325;51.512;-0.382;2023-08-20T13:11:31;33.60;99.90
30037;DHT22;36325;51.512;-0.382;2023-08-20T13:14:01;33.30;99.90
30037;DHT22;36325;51.512;-0.382;2023-08-20T13:16:29;32.20;99.90
30037;DHT22;36325;51.512;-0.382;2023-08-20T13:18:57;31.50;99.90
30037;DHT22;36325;51.512;-0.382;2023-08-20T13:21:24;31.50;99.90
30037;DHT22;36325;51.512;-0.382;2023-08-20T13:23:51;31.40;99.90
30037;DHT22;36325;51.512;-0.382;2023-08-20T13:28:49;30.50;99.90
30037;DHT22;36325;51.512;-0.382;2023-08-20T13:31:17;30.60;99.90
30037;DHT22;36325;51.512;-0.382;2023-08-20T13:33:48;31.60;99.90
30037;DHT22;36325;51.512;-0.382;2023-08-20T13:39:00;31.80;99.90
30037;DHT22;36325;51.512;-0.382;2023-08-20T13:43:56;30.60;99.90
30037;DHT22;36325;51.512;-0.382;2023-08-20T13:46:26;30.40;99.90
30037;DHT22;36325;51.512;-0.382;2023-08-20T13:48:54;29.70;99.90
30037;DHT22;36325;51.512;-0.382;2023-08-20T13:51:22;29.30;99.90
30037;DHT22;36325;51.512;-0.382;2023-08-20T13:53:50;29.20;99.90
30037;DHT22;36325;51.512;-0.382;2023-08-20T13:56:22;28.50;99.90
30037;DHT22;36325;51.512;-0.382;2023-08-20T13:58:56;29.00;99.90
30037;DHT22;36325;51.512;-0.382;2023-08-20T14:01:25;29.10;99.90
30037;DHT22;36325;51.512;-0.382;2023-08-20T14:03:53;28.30;99.90
30037;DHT22;36325;51.512;-0.382;2023-08-20T14:06:21;28.10;99.90
30037;DHT22;36325;51.512;-0.382;2023-08-20T14:08:49;28.10;99.90
30037;DHT22;36325;51.512;-0.382;2023-08-20T14:11:18;29.10;99.90
30037;DHT22;36325;51.512;-0.382;2023-08-20T14:13:46;29.50;99.90
30037;DHT22;36325;51.512;-0.382;2023-08-20T14:16:20;30.80;99.90
30037;DHT22;36325;51.512;-0.382;2023-08-20T14:18:47;31.30;99.90
30037;DHT22;36325;51.512;-0.382;2023-08-20T14:21:14;30.60;99.90
30037;DHT22;36325;51.512;-0.382;2023-08-20T14:23:42;29.80;99.90
30037;DHT22;36325;51.512;-0.382;2023-08-20T14:26:09;28.50;99.90
30037;DHT22;36325;51.512;-0.382;2023-08-20T14:28:37;28.50;99.90
30037;DHT22;36325;51.512;-0.382;2023-08-20T14:31:04;30.00;99.90
30037;DHT22;36325;51.512;-0.382;2023-08-20T14:33:32;31.70;99.90
30037;DHT22;36325;51.512;-0.382;2023-08-20T14:36:00;32.70;99.90
30037;DHT22;36325;51.512;-0.382;2023-08-20T14:38:30;33.70;99.90
30037;DHT22;36325;51.512;-0.382;2023-08-20T14:41:02;34.40;99.90
30037;DHT22;36325;51.512;-0.382;2023-08-20T14:43:30;34.50;99.90
30037;DHT22;36325;51.512;-0.382;2023-08-20T14:48:26;34.70;99.90
30037;DHT22;36325;51.512;-0.382;2023-08-20T14:50:55;34.80;99.90
30037;DHT22;36325;51.512;-0.382;2023-08-20T14:53:22;34.90;99.90
30037;DHT22;36325;51.512;-0.382;2023-08-20T14:58:18;34.60;99.90
30037;DHT22;36325;51.512;-0.382;2023-08-20T15:00:55;34.60;99.90
30037;DHT22;36325;51.512;-0.382;2023-08-20T15:03:30;34.70;99.90
30037;DHT22;36325;51.512;-0.382;2023-08-20T15:05:59;35.00;99.90
30037;DHT22;36325;51.512;-0.382;2023-08-20T15:08:35;34.70;99.90
30037;DHT22;36325;51.512;-0.382;2023-08-20T15:11:03;34.80;99.90
30037;DHT22;36325;51.512;-0.382;2023-08-20T15:13:31;34.00;99.90
30037;DHT22;36325;51.512;-0.382;2023-08-20T15:15:59;33.20;99.90
30037;DHT22;36325;51.512;-0.382;2023-08-20T15:18:27;33.70;99.90
30037;DHT22;36325;51.512;-0.382;2023-08-20T15:20:59;34.50;99.90
30037;DHT22;36325;51.512;-0.382;2023-08-20T15:23:59;33.60;99.90
30037;DHT22;36325;51.512;-0.382;2023-08-20T15:28:59;33.30;99.90
30037;DHT22;36325;51.512;-0.382;2023-08-20T15:31:27;33.50;99.90
30037;DHT22;36325;51.512;-0.382;2023-08-20T15:33:56;33.50;99.90
30037;DHT22;36325;51.512;-0.382;2023-08-20T15:36:41;33.70;99.90
30037;DHT22;36325;51.512;-0.382;2023-08-20T15:39:10;33.60;99.90
30037;DHT22;36325;51.512;-0.382;2023-08-20T15:41:41;33.60;99.90
30037;DHT22;36325;51.512;-0.382;2023-08-20T15:44:12;33.80;99.90
30037;DHT22;36325;51.512;-0.382;2023-08-20T15:46:43;34.10;99.90
30037;DHT22;36325;51.512;-0.382;2023-08-20T15:51:38;32.60;99.90
30037;DHT22;36325;51.512;-0.382;2023-08-20T15:54:06;30.90;99.90
30037;DHT22;36325;51.512;-0.382;2023-08-20T15:56:37;30.40;99.90
30037;DHT22;36325;51.512;-0.382;2023-08-20T15:59:05;30.60;99.90
30037;DHT22;36325;51.512;-0.382;2023-08-20T16:04:14;30.70;99.90
30037;DHT22;36325;51.512;-0.382;2023-08-20T16:09:12;31.10;99.90
30037;DHT22;36325;51.512;-0.382;2023-08-20T16:11:40;31.00;99.90
30037;DHT22;36325;51.512;-0.382;2023-08-20T16:24:02;29.30;99.90
30037;DHT22;36325;51.512;-0.382;2023-08-20T16:26:33;29.10;99.90
30037;DHT22;36325;51.512;-0.382;2023-08-20T16:29:05;28.80;99.90
30037;DHT22;36325;51.512;-0.382;2023-08-20T16:31:32;28.40;99.90
30037;DHT22;36325;51.512;-0.382;2023-08-20T16:33:59;28.20;99.90
30037;DHT22;36325;51.512;-0.382;2023-08-20T16:36:30;28.10;99.90
30037;DHT22;36325;51.512;-0.382;2023-08-20T16:38:59;29.10;99.90
30037;DHT22;36325;51.512;-0.382;2023-08-20T16:41:27;29.10;99.90
30037;DHT22;36325;51.512;-0.382;2023-08-20T16:43:54;29.00;99.90
30037;DHT22;36325;51.512;-0.382;2023-08-20T16:46:22;29.00;99.90
30037;DHT22;36325;51.512;-0.382;2023-08-20T16:48:49;28.50;99.90